Time;durP1;ratioP1;P1;durP2;ratioP2;P2;SDS_P1;SDS_P2;PMS_P1;PMS_P2;Temp;Humidity;BMP_temperature;BMP_pressure;BME280_temperature;BME280_humidity;BME280_pressure;Samples;Min_cycle;Max_cycle;Signal;HPM_P1;HPM_P2
2023/05/18 00:17:38;;;;;;;3.17;2.83;;;;;;;;;;5545543;22;20240;-31
2023/05/18 00:23:48;;;;;;;4.40;2.87;;;;;;;;;;4973190;28;20196;-30
2023/05/18 00:29:53;;;;;;;4.87;2.93;;;;;;;;;;5059367;28;20239;-38
2023/05/18 00:32:54;;;;;;;5.23;3.10;;;;;;;;;;5074246;28;20245;-25
2023/05/18 00:39:15;;;;;;;4.97;3.10;;;;;;;;;;4878387;29;20204;-26
2023/05/18 00:48:35;;;;;;;;;;;;;;;;;;;;;
2023/05/18 00:51:53;;;;;;;;;;;;;;;;;;;;;
2023/05/18 01:03:31;;;;;;;3.83;2.80;;;;;;;;;;5021964;28;20214;-25
2023/05/18 01:17:58;;;;;;;4.97;2.90;;;;;;;;;;4976152;28;20212;-27
2023/05/18 01:27:33;;;;;;;;;;;;;;;;;;;;;
2023/05/18 01:43:07;;;;;;;;;;;;;;;;;;;;;
2023/05/18 02:03:58;;;;;;;2.73;2.30;;;;;;;;;;5088416;27;20578;-36
2023/05/18 02:16:10;;;;;;;;;;;;;;;;;;;;;
2023/05/18 02:24:52;;;;;;;4.63;2.43;;;;;;;;;;4980262;28;20219;-30
2023/05/18 02:36:38;;;;;;;3.07;2.20;;;;;;;;;;5244102;22;20625;-33
2023/05/18 02:39:06;;;;;;;5.53;2.43;;;;;;;;;;5082552;28;20200;-31
2023/05/18 02:41:33;;;;;;;4.47;3.07;;;;;;;;;;5086340;28;20326;-30
2023/05/18 02:44:01;;;;;;;3.40;2.33;;;;;;;;;;5086282;28;20201;-32
2023/05/18 02:46:28;;;;;;;3.07;2.50;;;;;;;;;;5077909;28;20437;-30
2023/05/18 02:48:55;;;;;;;4.83;3.07;;;;;;;;;;5077445;28;20201;-33
2023/05/18 02:51:22;;;;;;;4.57;2.30;;;;;;;;;;5066340;28;20212;-32
2023/05/18 02:53:51;;;;;;;3.23;2.50;;;;;;;;;;5064483;28;20252;-29
2023/05/18 02:56:18;;;;;;;3.57;2.87;;;;;;;;;;5080184;28;20220;-31
2023/05/18 02:58:46;;;;;;;5.53;3.07;;;;;;;;;;5079395;28;20190;-32
2023/05/18 03:01:13;;;;;;;2.77;2.50;;;;;;;;;;5068353;28;20205;-32
2023/05/18 03:03:40;;;;;;;5.70;3.07;;;;;;;;;;5081465;28;20204;-30
2023/05/18 03:06:08;;;;;;;3.50;2.50;;;;;;;;;;5086112;28;20216;-30
2023/05/18 03:08:35;;;;;;;2.67;2.47;;;;;;;;;;5086505;28;20200;-31
2023/05/18 03:11:04;;;;;;;5.43;2.97;;;;;;;;;;5072860;28;20194;-32
2023/05/18 03:13:31;;;;;;;3.50;2.50;;;;;;;;;;5070409;28;20218;-30
2023/05/18 03:15:58;;;;;;;2.67;2.40;;;;;;;;;;5052487;28;20224;-31
2023/05/18 03:18:25;;;;;;;3.67;2.93;;;;;;;;;;5072392;28;20292;-32
2023/05/18 03:20:53;;;;;;;3.17;2.87;;;;;;;;;;5072700;28;20205;-33
2023/05/18 03:23:20;;;;;;;3.30;2.73;;;;;;;;;;5064647;28;20218;-33
2023/05/18 03:25:52;;;;;;;2.93;2.60;;;;;;;;;;5063109;28;20217;-28
2023/05/18 03:28:21;;;;;;;3.40;2.60;;;;;;;;;;5064085;28;20275;-33
2023/05/18 03:30:48;;;;;;;3.17;2.50;;;;;;;;;;5061379;28;20208;-31
2023/05/18 03:33:15;;;;;;;3.23;2.80;;;;;;;;;;5063968;28;20645;-30
2023/05/18 03:35:42;;;;;;;2.87;2.20;;;;;;;;;;5071773;28;20225;-33
2023/05/18 03:38:09;;;;;;;4.20;2.23;;;;;;;;;;5072646;28;20193;-30
2023/05/18 03:40:36;;;;;;;4.13;2.60;;;;;;;;;;5070226;28;20212;-32
2023/05/18 03:43:04;;;;;;;4.20;3.10;;;;;;;;;;5054844;28;20225;-32
2023/05/18 03:45:32;;;;;;;4.23;2.80;;;;;;;;;;5057842;28;20213;-32
2023/05/18 03:47:59;;;;;;;5.13;2.70;;;;;;;;;;5062910;28;20202;-33
2023/05/18 03:50:28;;;;;;;3.50;2.40;;;;;;;;;;5060729;28;20198;-29
2023/05/18 03:52:55;;;;;;;3.87;2.47;;;;;;;;;;5054130;28;20651;-31
2023/05/18 03:55:22;;;;;;;4.57;2.80;;;;;;;;;;5055254;28;20768;-32
2023/05/18 03:57:50;;;;;;;3.50;2.57;;;;;;;;;;5065672;28;20835;-31
2023/05/18 04:00:17;;;;;;;5.23;2.87;;;;;;;;;;5060852;28;20198;-33
2023/05/18 04:02:46;;;;;;;3.60;2.73;;;;;;;;;;5053739;28;20226;-33
2023/05/18 04:05:14;;;;;;;3.73;2.50;;;;;;;;;;5062425;28;20224;-32
2023/05/18 04:07:45;;;;;;;3.80;3.37;;;;;;;;;;5052891;28;20202;-33
2023/05/18 04:10:12;;;;;;;4.77;3.07;;;;;;;;;;5064278;28;20217;-33
2023/05/18 04:12:39;;;;;;;4.57;3.60;;;;;;;;;;5054012;28;20551;-31
2023/05/18 04:15:07;;;;;;;4.50;3.63;;;;;;;;;;5053580;28;20198;-30
2023/05/18 04:17:34;;;;;;;4.23;3.50;;;;;;;;;;5071854;28;20204;-33
2023/05/18 04:20:11;;;;;;;3.40;2.97;;;;;;;;;;5074015;28;20207;-31
2023/05/18 04:22:42;;;;;;;3.70;3.40;;;;;;;;;;5071356;28;20204;-29
2023/05/18 04:25:10;;;;;;;5.77;3.67;;;;;;;;;;5052262;28;20210;-30
2023/05/18 04:27:38;;;;;;;5.30;3.37;;;;;;;;;;5067297;28;20193;-34
2023/05/18 04:30:09;;;;;;;3.33;3.00;;;;;;;;;;5072027;28;20209;-29
2023/05/18 04:32:36;;;;;;;2.97;2.67;;;;;;;;;;5061367;28;20228;-31
2023/05/18 04:35:05;;;;;;;3.40;3.00;;;;;;;;;;5070928;28;20284;-28
2023/05/18 04:37:32;;;;;;;3.30;2.90;;;;;;;;;;5074224;28;20262;-29
2023/05/18 04:40:01;;;;;;;5.93;2.80;;;;;;;;;;5065612;28;20201;-30
2023/05/18 04:42:28;;;;;;;4.73;2.70;;;;;;;;;;5066071;28;20225;-32
2023/05/18 04:44:55;;;;;;;4.30;3.23;;;;;;;;;;5066111;28;20201;-30
2023/05/18 04:47:22;;;;;;;3.93;2.73;;;;;;;;;;5063193;28;20209;-30
2023/05/18 04:49:51;;;;;;;7.37;3.30;;;;;;;;;;5052971;28;20247;-31
2023/05/18 04:52:20;;;;;;;4.80;3.13;;;;;;;;;;5053358;28;20590;-31
2023/05/18 04:54:47;;;;;;;4.13;2.50;;;;;;;;;;5059309;28;20223;-31
2023/05/18 04:57:15;;;;;;;4.30;2.83;;;;;;;;;;5073007;28;20232;-32
2023/05/18 04:59:46;;;;;;;4.70;2.50;;;;;;;;;;5071786;28;20201;-30
2023/05/18 05:02:13;;;;;;;3.00;2.40;;;;;;;;;;5053254;28;20264;-32
2023/05/18 05:04:41;;;;;;;5.77;3.00;;;;;;;;;;5052458;28;20644;-28
2023/05/18 05:07:08;;;;;;;5.60;2.93;;;;;;;;;;5053481;28;20303;-32
2023/05/18 05:09:36;;;;;;;6.43;3.47;;;;;;;;;;5054149;28;20213;-30
2023/05/18 05:12:04;;;;;;;5.50;3.00;;;;;;;;;;5065510;28;20244;-28
2023/05/18 05:14:31;;;;;;;3.57;2.90;;;;;;;;;;5068240;28;20205;-31
2023/05/18 05:16:58;;;;;;;4.37;2.90;;;;;;;;;;5054870;28;20214;-31
2023/05/18 05:19:25;;;;;;;5.37;3.03;;;;;;;;;;5052527;28;20201;-28
2023/05/18 05:21:52;;;;;;;3.97;3.00;;;;;;;;;;5054022;28;20201;-30
2023/05/18 05:24:19;;;;;;;3.90;2.97;;;;;;;;;;5057260;28;20204;-33
2023/05/18 05:26:47;;;;;;;3.43;2.90;;;;;;;;;;5069847;28;20220;-29
2023/05/18 05:29:14;;;;;;;4.03;3.03;;;;;;;;;;5051086;28;20202;-30
2023/05/18 05:31:42;;;;;;;6.70;3.10;;;;;;;;;;5055959;28;20681;-29
2023/05/18 05:34:10;;;;;;;4.77;3.13;;;;;;;;;;5059479;28;20208;-32
2023/05/18 05:36:38;;;;;;;5.57;2.57;;;;;;;;;;5051077;28;20774;-31
2023/05/18 05:39:05;;;;;;;4.07;2.70;;;;;;;;;;5053505;28;20198;-31
2023/05/18 05:41:32;;;;;;;5.37;3.17;;;;;;;;;;5066106;28;20633;-34
2023/05/18 05:44:00;;;;;;;5.20;3.00;;;;;;;;;;5051230;28;20222;-31
2023/05/18 05:46:28;;;;;;;4.70;3.03;;;;;;;;;;5053352;28;20221;-31
2023/05/18 05:48:55;;;;;;;9.17;2.90;;;;;;;;;;5052788;28;20267;-30
2023/05/18 05:51:22;;;;;;;3.00;2.50;;;;;;;;;;5052958;28;20627;-33
2023/05/18 05:53:49;;;;;;;5.30;2.93;;;;;;;;;;5055538;28;20529;-32
2023/05/18 05:56:16;;;;;;;5.43;2.57;;;;;;;;;;5053424;28;20307;-29
2023/05/18 05:58:43;;;;;;;4.60;2.53;;;;;;;;;;5052753;28;20209;-32
2023/05/18 06:01:12;;;;;;;3.17;2.47;;;;;;;;;;5051452;28;20228;-32
2023/05/18 06:03:39;;;;;;;7.77;2.30;;;;;;;;;;5060687;28;20218;-29
2023/05/18 06:06:06;;;;;;;7.13;2.43;;;;;;;;;;5052052;28;20220;-33
2023/05/18 06:08:33;;;;;;;4.07;2.23;;;;;;;;;;5051221;28;20219;-31
2023/05/18 06:11:00;;;;;;;4.80;2.60;;;;;;;;;;5068441;28;20223;-30
2023/05/18 06:13:27;;;;;;;3.60;2.00;;;;;;;;;;5058922;28;20201;-32
2023/05/18 06:15:55;;;;;;;9.60;2.60;;;;;;;;;;5049323;28;20221;-30
2023/05/18 06:18:23;;;;;;;5.47;2.30;;;;;;;;;;5071579;28;20248;-29
2023/05/18 06:20:50;;;;;;;3.60;2.07;;;;;;;;;;5056869;28;20217;-29
2023/05/18 06:23:21;;;;;;;4.27;2.53;;;;;;;;;;5052492;28;20225;-31
2023/05/18 06:25:48;;;;;;;7.97;2.33;;;;;;;;;;5065108;28;20229;-31
2023/05/18 06:28:15;;;;;;;6.00;2.53;;;;;;;;;;5071272;28;20203;-33
2023/05/18 06:30:42;;;;;;;5.13;2.63;;;;;;;;;;5055741;28;20190;-31
2023/05/18 06:33:09;;;;;;;5.80;2.40;;;;;;;;;;5065018;28;20202;-33
2023/05/18 06:35:38;;;;;;;5.73;2.60;;;;;;;;;;5060152;28;20237;-34
2023/05/18 06:38:05;;;;;;;6.40;2.73;;;;;;;;;;5056318;28;20201;-33
2023/05/18 06:40:38;;;;;;;7.13;2.80;;;;;;;;;;5063504;28;20199;-32
2023/05/18 06:43:07;;;;;;;5.17;2.63;;;;;;;;;;5063087;28;20213;-32
2023/05/18 06:45:35;;;;;;;5.33;2.23;;;;;;;;;;5065934;28;20255;-32
2023/05/18 06:48:02;;;;;;;6.20;2.50;;;;;;;;;;5069586;28;20549;-32
2023/05/18 06:50:31;;;;;;;7.80;2.57;;;;;;;;;;5074937;28;20206;-34
2023/05/18 06:53:01;;;;;;;6.27;2.87;;;;;;;;;;5075318;28;20204;-33
2023/05/18 06:55:28;;;;;;;10.03;2.80;;;;;;;;;;5054950;28;20279;-30
2023/05/18 06:57:57;;;;;;;4.50;2.60;;;;;;;;;;5071074;28;20195;-33
2023/05/18 07:00:24;;;;;;;5.57;2.93;;;;;;;;;;5072568;28;20193;-30
2023/05/18 07:02:51;;;;;;;6.03;2.53;;;;;;;;;;5059012;28;20223;-34
2023/05/18 07:05:18;;;;;;;6.73;2.40;;;;;;;;;;5073605;28;20214;-33
2023/05/18 07:07:46;;;;;;;4.27;2.47;;;;;;;;;;5070475;28;20205;-33
2023/05/18 07:10:21;;;;;;;3.13;2.23;;;;;;;;;;5062985;28;20220;-31
2023/05/18 07:12:48;;;;;;;6.37;2.37;;;;;;;;;;5054386;28;20285;-32
2023/05/18 07:15:16;;;;;;;5.63;2.47;;;;;;;;;;5052678;28;20229;-34
2023/05/18 07:17:44;;;;;;;4.80;2.67;;;;;;;;;;5066798;28;20658;-31
2023/05/18 07:20:11;;;;;;;6.03;2.37;;;;;;;;;;5074656;28;20208;-30
2023/05/18 07:22:38;;;;;;;3.17;2.50;;;;;;;;;;5074559;28;20235;-33
2023/05/18 07:25:06;;;;;;;8.00;2.90;;;;;;;;;;5070807;28;20205;-34
2023/05/18 07:27:34;;;;;;;6.53;2.53;;;;;;;;;;5063800;28;20194;-31
2023/05/18 07:30:01;;;;;;;5.77;2.70;;;;;;;;;;5062663;28;20206;-34
2023/05/18 07:32:28;;;;;;;6.50;2.97;;;;;;;;;;5065921;28;20207;-33
2023/05/18 07:34:55;;;;;;;5.20;2.67;;;;;;;;;;5058684;28;20666;-33
2023/05/18 07:37:23;;;;;;;4.07;2.43;;;;;;;;;;5055322;28;20206;-32
2023/05/18 07:39:50;;;;;;;7.70;2.70;;;;;;;;;;5056801;28;20267;-34
2023/05/18 07:42:17;;;;;;;6.40;2.90;;;;;;;;;;5065052;28;20220;-30
2023/05/18 07:44:45;;;;;;;6.77;2.60;;;;;;;;;;5063005;28;20228;-33
2023/05/18 07:47:12;;;;;;;6.33;2.67;;;;;;;;;;5068809;28;20233;-33
2023/05/18 07:49:39;;;;;;;3.23;2.10;;;;;;;;;;5068587;28;20209;-34
2023/05/18 07:52:07;;;;;;;4.10;2.87;;;;;;;;;;5054217;28;20667;-34
2023/05/18 07:54:34;;;;;;;9.23;2.77;;;;;;;;;;5053998;28;20198;-30
2023/05/18 07:57:03;;;;;;;8.63;3.53;;;;;;;;;;5054453;28;20218;-31
2023/05/18 07:59:30;;;;;;;3.63;2.57;;;;;;;;;;5057922;28;20197;-32
2023/05/18 08:01:58;;;;;;;4.97;2.80;;;;;;;;;;5065726;28;20205;-33
2023/05/18 08:04:29;;;;;;;6.70;2.40;;;;;;;;;;5052912;28;20600;-30
2023/05/18 08:06:59;;;;;;;5.00;2.60;;;;;;;;;;5070209;28;20224;-31
2023/05/18 08:09:26;;;;;;;4.17;2.30;;;;;;;;;;5062134;28;20650;-32
2023/05/18 08:11:53;;;;;;;5.10;2.30;;;;;;;;;;5053523;28;20198;-33
2023/05/18 08:14:20;;;;;;;9.87;2.90;;;;;;;;;;5061523;28;20225;-32
2023/05/18 08:16:47;;;;;;;5.90;2.43;;;;;;;;;;5061423;28;20213;-31
2023/05/18 08:19:16;;;;;;;4.93;3.10;;;;;;;;;;5063636;28;20201;-34
2023/05/18 08:21:50;;;;;;;4.97;2.53;;;;;;;;;;5073540;28;20210;-33
2023/05/18 08:24:17;;;;;;;5.97;2.50;;;;;;;;;;5070315;28;20201;-34
2023/05/18 08:26:44;;;;;;;5.87;2.47;;;;;;;;;;5062732;28;20854;-29
2023/05/18 08:29:11;;;;;;;4.10;2.43;;;;;;;;;;5062782;28;20205;-31
2023/05/18 08:31:39;;;;;;;7.63;2.40;;;;;;;;;;5054340;28;20201;-30
2023/05/18 08:34:06;;;;;;;4.87;2.60;;;;;;;;;;5063122;28;20280;-32
2023/05/18 08:36:36;;;;;;;7.50;2.30;;;;;;;;;;5069290;28;20221;-34
2023/05/18 08:39:04;;;;;;;6.87;2.60;;;;;;;;;;5054016;28;20201;-30
2023/05/18 08:41:33;;;;;;;5.23;2.40;;;;;;;;;;5063482;28;20197;-33
2023/05/18 08:44:02;;;;;;;6.23;2.80;;;;;;;;;;5059470;28;20221;-33
2023/05/18 08:46:36;;;;;;;3.90;2.53;;;;;;;;;;5057416;28;20224;-32
2023/05/18 08:49:05;;;;;;;8.67;2.87;;;;;;;;;;5063763;28;20192;-33
2023/05/18 08:51:36;;;;;;;4.17;2.40;;;;;;;;;;5059268;28;20193;-33
2023/05/18 08:54:04;;;;;;;4.17;2.23;;;;;;;;;;5064165;28;20271;-30
2023/05/18 08:56:33;;;;;;;6.70;2.67;;;;;;;;;;5059946;28;20222;-35
2023/05/18 08:59:00;;;;;;;7.30;2.60;;;;;;;;;;5061468;28;20210;-34
2023/05/18 09:01:37;;;;;;;4.47;2.33;;;;;;;;;;5064106;28;20197;-34
2023/05/18 09:04:06;;;;;;;6.70;2.20;;;;;;;;;;5071579;28;20465;-33
2023/05/18 09:06:34;;;;;;;5.23;2.77;;;;;;;;;;5073219;28;20231;-31
2023/05/18 09:09:05;;;;;;;5.53;2.60;;;;;;;;;;5064510;28;20200;-31
2023/05/18 09:11:33;;;;;;;6.03;2.13;;;;;;;;;;5067576;28;20199;-33
2023/05/18 09:14:06;;;;;;;4.90;2.43;;;;;;;;;;5057938;28;20206;-32
2023/05/18 09:16:33;;;;;;;4.57;2.30;;;;;;;;;;5058946;28;20226;-36
2023/05/18 09:19:01;;;;;;;3.87;2.47;;;;;;;;;;5058236;28;20205;-31
2023/05/18 09:21:28;;;;;;;7.23;2.70;;;;;;;;;;5067409;28;20198;-28
2023/05/18 09:23:55;;;;;;;3.27;2.40;;;;;;;;;;5069023;28;20216;-31
2023/05/18 09:26:23;;;;;;;7.97;2.70;;;;;;;;;;5056557;28;20229;-30
2023/05/18 09:28:52;;;;;;;2.57;1.30;;;;;;;;;;5058887;28;20656;-35
2023/05/18 09:31:20;;;;;;;5.40;2.40;;;;;;;;;;5056914;28;20219;-31
2023/05/18 09:33:50;;;;;;;4.77;2.43;;;;;;;;;;5058078;28;20198;-31
2023/05/18 09:36:17;;;;;;;4.03;2.00;;;;;;;;;;5060993;28;20230;-31
2023/05/18 09:38:45;;;;;;;8.30;2.50;;;;;;;;;;5059068;28;20204;-31
2023/05/18 09:41:15;;;;;;;6.20;2.47;;;;;;;;;;5063003;28;20205;-32
2023/05/18 09:43:44;;;;;;;4.73;2.63;;;;;;;;;;5061996;28;20222;-30
2023/05/18 09:46:12;;;;;;;5.67;2.80;;;;;;;;;;5058417;28;20225;-32
2023/05/18 09:48:42;;;;;;;3.33;2.03;;;;;;;;;;5053873;28;20194;-32
2023/05/18 09:51:12;;;;;;;3.10;1.90;;;;;;;;;;5063177;28;20208;-32
2023/05/18 09:53:40;;;;;;;4.23;2.30;;;;;;;;;;5063037;28;20223;-33
2023/05/18 09:56:10;;;;;;;2.97;2.00;;;;;;;;;;5057945;28;20222;-34
2023/05/18 09:58:38;;;;;;;3.10;2.10;;;;;;;;;;5055364;28;20190;-32
2023/05/18 10:01:08;;;;;;;7.87;2.80;;;;;;;;;;5057809;28;20197;-32
2023/05/18 10:03:36;;;;;;;7.00;2.73;;;;;;;;;;5061436;28;20200;-32
2023/05/18 10:06:05;;;;;;;6.33;2.60;;;;;;;;;;5059542;28;20217;-30
2023/05/18 10:08:32;;;;;;;7.50;2.60;;;;;;;;;;5056357;28;20209;-30
2023/05/18 10:10:59;;;;;;;5.43;2.40;;;;;;;;;;5060323;28;20205;-32
2023/05/18 10:13:27;;;;;;;6.73;2.87;;;;;;;;;;5065327;28;20208;-32
2023/05/18 10:15:55;;;;;;;8.00;2.40;;;;;;;;;;5063775;28;20588;-30
2023/05/18 10:18:24;;;;;;;2.73;1.93;;;;;;;;;;5055041;28;20834;-31
2023/05/18 10:20:53;;;;;;;5.70;2.70;;;;;;;;;;5061580;28;20204;-30
2023/05/18 10:23:21;;;;;;;5.27;2.03;;;;;;;;;;5057167;28;20753;-31
2023/05/18 10:25:49;;;;;;;6.17;2.33;;;;;;;;;;5067405;28;20225;-30
2023/05/18 10:28:23;;;;;;;6.30;2.23;;;;;;;;;;5062121;28;20200;-31
2023/05/18 10:30:51;;;;;;;4.83;2.23;;;;;;;;;;5061145;28;20208;-33
2023/05/18 10:33:19;;;;;;;4.67;2.13;;;;;;;;;;5074906;28;20197;-33
2023/05/18 10:35:49;;;;;;;4.90;2.17;;;;;;;;;;5070405;28;20221;-31
2023/05/18 10:38:19;;;;;;;5.33;2.30;;;;;;;;;;5059123;28;20297;-32
2023/05/18 10:40:47;;;;;;;6.53;2.73;;;;;;;;;;5061658;28;20255;-30
2023/05/18 10:43:15;;;;;;;6.10;2.20;;;;;;;;;;5067842;28;20198;-33
2023/05/18 10:45:45;;;;;;;4.40;2.23;;;;;;;;;;5066595;28;20307;-28
2023/05/18 10:48:13;;;;;;;9.27;2.73;;;;;;;;;;5070695;28;20208;-34
2023/05/18 10:50:40;;;;;;;4.97;2.17;;;;;;;;;;5060769;28;20197;-34
2023/05/18 10:53:10;;;;;;;3.77;1.90;;;;;;;;;;5063948;28;20204;-32
2023/05/18 10:55:43;;;;;;;7.53;2.63;;;;;;;;;;5067182;28;20220;-31
2023/05/18 10:58:13;;;;;;;8.83;2.20;;;;;;;;;;5063814;28;20198;-32
2023/05/18 11:00:40;;;;;;;5.30;2.40;;;;;;;;;;5065130;28;20582;-32
2023/05/18 11:03:11;;;;;;;5.63;2.10;;;;;;;;;;5061392;28;20202;-30
2023/05/18 11:05:39;;;;;;;4.63;2.40;;;;;;;;;;5070790;28;20225;-31
2023/05/18 11:08:09;;;;;;;4.40;2.10;;;;;;;;;;5060772;28;20182;-31
2023/05/18 11:10:41;;;;;;;6.10;1.87;;;;;;;;;;5063151;28;20240;-34
2023/05/18 11:13:09;;;;;;;3.23;1.80;;;;;;;;;;5063740;28;20277;-33
2023/05/18 11:16:05;;;;;;;6.10;1.90;;;;;;;;;;5066628;28;20694;-29
2023/05/18 11:18:39;;;;;;;6.73;2.30;;;;;;;;;;5015112;28;20750;-33
2023/05/18 11:21:19;;;;;;;4.43;1.60;;;;;;;;;;5069239;28;20193;-31
2023/05/18 11:24:01;;;;;;;5.00;2.30;;;;;;;;;;5061800;28;20193;-32
2023/05/18 11:26:30;;;;;;;3.47;2.00;;;;;;;;;;5057320;28;20220;-31
2023/05/18 11:28:59;;;;;;;7.80;2.10;;;;;;;;;;5069392;28;20193;-29
2023/05/18 11:31:43;;;;;;;3.00;1.23;;;;;;;;;;5068768;28;20283;-34
2023/05/18 11:34:25;;;;;;;6.70;2.57;;;;;;;;;;5058225;28;20209;-32
2023/05/18 11:36:55;;;;;;;4.93;2.10;;;;;;;;;;5060995;28;20450;-30
2023/05/18 11:39:24;;;;;;;5.57;1.87;;;;;;;;;;5064532;28;20865;-34
2023/05/18 11:42:00;;;;;;;4.43;1.87;;;;;;;;;;5065903;28;20561;-31
2023/05/18 11:44:28;;;;;;;5.57;2.27;;;;;;;;;;5054257;28;20216;-31
2023/05/18 11:47:02;;;;;;;4.47;2.30;;;;;;;;;;5061881;28;20221;-34
2023/05/18 11:49:30;;;;;;;3.83;2.10;;;;;;;;;;5064253;28;20190;-30
2023/05/18 11:52:07;;;;;;;5.20;1.80;;;;;;;;;;5059803;28;20198;-35
2023/05/18 11:54:35;;;;;;;3.93;2.20;;;;;;;;;;5064924;28;20204;-32
2023/05/18 11:57:04;;;;;;;3.47;1.90;;;;;;;;;;5062577;28;20314;-31
2023/05/18 11:59:32;;;;;;;4.77;1.87;;;;;;;;;;5059957;28;20197;-33
2023/05/18 12:02:00;;;;;;;7.13;2.40;;;;;;;;;;5058843;28;20209;-30
2023/05/18 12:04:28;;;;;;;3.87;1.80;;;;;;;;;;5059495;28;20216;-34
2023/05/18 12:06:57;;;;;;;4.27;2.10;;;;;;;;;;5058216;28;20671;-30
2023/05/18 12:09:24;;;;;;;5.23;1.87;;;;;;;;;;5064031;28;20205;-30
2023/05/18 12:11:52;;;;;;;3.03;1.70;;;;;;;;;;5067988;28;20202;-31
2023/05/18 12:14:21;;;;;;;4.13;1.83;;;;;;;;;;5067473;28;20204;-30
2023/05/18 12:16:58;;;;;;;3.17;1.70;;;;;;;;;;5057186;28;20563;-31
2023/05/18 12:19:26;;;;;;;7.50;1.80;;;;;;;;;;5061926;28;20467;-30
2023/05/18 12:21:53;;;;;;;4.10;2.30;;;;;;;;;;5063990;28;20210;-32
2023/05/18 12:24:21;;;;;;;3.77;2.13;;;;;;;;;;5069447;28;20551;-33
2023/05/18 12:26:48;;;;;;;3.63;1.90;;;;;;;;;;5056198;28;20781;-30
2023/05/18 12:29:18;;;;;;;4.63;1.97;;;;;;;;;;5066565;28;20201;-35
2023/05/18 12:31:47;;;;;;;5.93;1.90;;;;;;;;;;5063450;28;20197;-32
2023/05/18 12:34:15;;;;;;;4.50;1.80;;;;;;;;;;5062113;28;20250;-31
2023/05/18 12:36:43;;;;;;;4.63;2.33;;;;;;;;;;5061825;28;20279;-33
2023/05/18 12:39:10;;;;;;;3.93;2.13;;;;;;;;;;5059943;28;20202;-32
2023/05/18 12:41:37;;;;;;;4.23;1.53;;;;;;;;;;5059910;28;20202;-30
2023/05/18 12:44:05;;;;;;;6.03;1.93;;;;;;;;;;5055974;28;20391;-32
2023/05/18 12:46:32;;;;;;;6.67;2.00;;;;;;;;;;5057674;28;20232;-33
2023/05/18 12:49:03;;;;;;;2.13;1.20;;;;;;;;;;5058062;28;20316;-32
2023/05/18 12:51:33;;;;;;;5.63;2.07;;;;;;;;;;5067568;28;20196;-31
2023/05/18 12:54:01;;;;;;;5.17;1.97;;;;;;;;;;5055517;28;20193;-33
2023/05/18 12:56:49;;;;;;;5.40;2.17;;;;;;;;;;5060393;28;20379;-31
2023/05/18 12:59:18;;;;;;;6.80;1.93;;;;;;;;;;5071887;28;20212;-31
2023/05/18 13:01:45;;;;;;;4.80;2.20;;;;;;;;;;5058541;28;20277;-32
2023/05/18 13:04:14;;;;;;;3.90;1.87;;;;;;;;;;5064709;28;20228;-32
2023/05/18 13:06:42;;;;;;;3.60;1.83;;;;;;;;;;5065699;28;20228;-32
2023/05/18 13:09:09;;;;;;;4.20;1.67;;;;;;;;;;5058940;28;20202;-34
2023/05/18 13:11:36;;;;;;;7.10;1.87;;;;;;;;;;5067982;28;20205;-32
2023/05/18 13:14:04;;;;;;;7.77;2.13;;;;;;;;;;5053956;28;20202;-33
2023/05/18 13:16:31;;;;;;;4.30;1.90;;;;;;;;;;5060520;28;20210;-33
2023/05/18 13:18:59;;;;;;;5.60;1.77;;;;;;;;;;5055695;28;20202;-33
2023/05/18 13:21:28;;;;;;;2.87;1.57;;;;;;;;;;5056140;28;20197;-33
2023/05/18 13:23:56;;;;;;;6.23;1.77;;;;;;;;;;5065155;28;20202;-31
2023/05/18 13:26:24;;;;;;;4.90;1.87;;;;;;;;;;5066968;28;20224;-32
2023/05/18 13:28:52;;;;;;;4.57;1.67;;;;;;;;;;5062249;28;20197;-34
2023/05/18 13:31:19;;;;;;;3.83;1.90;;;;;;;;;;5059165;28;20209;-31
2023/05/18 13:33:47;;;;;;;5.47;2.03;;;;;;;;;;5059345;28;20202;-31
2023/05/18 13:36:14;;;;;;;4.80;1.87;;;;;;;;;;5066658;28;20303;-33
2023/05/18 13:38:44;;;;;;;5.13;1.80;;;;;;;;;;5056458;28;20628;-31
2023/05/18 13:41:13;;;;;;;8.63;2.37;;;;;;;;;;5066549;28;20209;-30
2023/05/18 13:43:41;;;;;;;2.43;1.60;;;;;;;;;;5056729;28;20232;-31
2023/05/18 13:46:09;;;;;;;3.17;1.63;;;;;;;;;;5054481;28;20222;-32
2023/05/18 13:48:36;;;;;;;7.73;1.63;;;;;;;;;;5065940;28;20559;-31
2023/05/18 13:51:03;;;;;;;5.70;2.00;;;;;;;;;;5055624;28;20202;-31
2023/05/18 13:53:30;;;;;;;4.50;1.70;;;;;;;;;;5050937;28;20205;-32
2023/05/18 13:55:59;;;;;;;3.13;1.93;;;;;;;;;;5054997;28;20217;-30
2023/05/18 13:58:26;;;;;;;3.90;1.67;;;;;;;;;;5064328;28;20209;-32
2023/05/18 14:00:55;;;;;;;7.70;1.90;;;;;;;;;;5061816;28;20293;-31
2023/05/18 14:03:23;;;;;;;4.60;1.70;;;;;;;;;;5053459;28;20190;-31
2023/05/18 14:05:50;;;;;;;5.03;1.63;;;;;;;;;;5065525;28;20229;-31
2023/05/18 14:08:24;;;;;;;5.30;2.20;;;;;;;;;;5056770;28;20203;-34
2023/05/18 14:10:51;;;;;;;4.60;1.77;;;;;;;;;;5070341;28;20223;-34
2023/05/18 14:13:27;;;;;;;3.07;1.63;;;;;;;;;;5062590;28;20651;-32
2023/05/18 14:15:54;;;;;;;4.03;1.70;;;;;;;;;;5062259;28;20221;-34
2023/05/18 14:18:21;;;;;;;6.67;1.90;;;;;;;;;;5058293;28;20266;-34
2023/05/18 14:20:48;;;;;;;5.87;1.93;;;;;;;;;;5066401;28;20292;-31
2023/05/18 14:23:15;;;;;;;4.27;2.07;;;;;;;;;;5069304;28;20201;-32
2023/05/18 14:25:44;;;;;;;4.13;1.80;;;;;;;;;;5063118;28;20232;-33
2023/05/18 14:28:12;;;;;;;4.17;1.50;;;;;;;;;;5062888;28;20198;-30
2023/05/18 14:30:40;;;;;;;4.60;1.90;;;;;;;;;;5068395;28;20284;-33
2023/05/18 14:33:07;;;;;;;1.87;1.50;;;;;;;;;;5069363;28;20200;-34
2023/05/18 14:35:34;;;;;;;3.67;1.80;;;;;;;;;;5071299;28;20231;-31
2023/05/18 14:38:02;;;;;;;4.97;1.83;;;;;;;;;;5071318;28;20201;-34
2023/05/18 14:40:29;;;;;;;5.67;1.80;;;;;;;;;;5057426;28;20201;-30
2023/05/18 14:42:56;;;;;;;3.53;1.77;;;;;;;;;;5062051;28;20194;-32
2023/05/18 14:45:23;;;;;;;6.83;1.63;;;;;;;;;;5066846;28;20231;-30
2023/05/18 14:47:52;;;;;;;5.17;1.83;;;;;;;;;;5068600;28;20197;-31
2023/05/18 14:50:19;;;;;;;4.97;1.97;;;;;;;;;;5071630;28;20205;-32
2023/05/18 14:52:46;;;;;;;5.57;1.93;;;;;;;;;;5071794;28;20216;-32
2023/05/18 14:55:13;;;;;;;4.37;2.07;;;;;;;;;;5059170;28;20225;-35
2023/05/18 14:57:41;;;;;;;4.90;1.93;;;;;;;;;;5066528;28;20194;-31
2023/05/18 15:00:09;;;;;;;7.67;1.73;;;;;;;;;;5063125;28;20284;-31
2023/05/18 15:02:36;;;;;;;3.33;1.50;;;;;;;;;;5061247;28;20218;-32
2023/05/18 15:05:05;;;;;;;4.07;2.20;;;;;;;;;;5069130;28;20205;-33
2023/05/18 15:07:32;;;;;;;5.30;1.80;;;;;;;;;;5071824;28;20209;-32
2023/05/18 15:09:59;;;;;;;4.27;1.93;;;;;;;;;;5068239;28;20198;-32
2023/05/18 15:12:27;;;;;;;5.23;1.93;;;;;;;;;;5065571;28;20401;-33
2023/05/18 15:14:54;;;;;;;5.00;1.90;;;;;;;;;;5058981;28;20206;-36
2023/05/18 15:17:21;;;;;;;5.10;2.40;;;;;;;;;;5064696;28;20202;-30
2023/05/18 15:19:48;;;;;;;4.70;1.97;;;;;;;;;;5056822;28;20201;-31
2023/05/18 15:22:16;;;;;;;3.90;1.73;;;;;;;;;;5059431;28;20259;-31
2023/05/18 15:24:43;;;;;;;6.00;1.70;;;;;;;;;;5064040;28;20648;-31
2023/05/18 15:27:10;;;;;;;3.70;1.97;;;;;;;;;;5063895;28;20233;-32
2023/05/18 15:29:38;;;;;;;3.60;1.73;;;;;;;;;;5064984;28;20201;-31
2023/05/18 15:32:05;;;;;;;5.00;1.97;;;;;;;;;;5061909;28;20202;-31
2023/05/18 15:34:32;;;;;;;3.30;2.00;;;;;;;;;;5070575;28;20193;-32
2023/05/18 15:37:00;;;;;;;4.10;1.90;;;;;;;;;;5068242;28;20229;-32
2023/05/18 15:39:29;;;;;;;2.30;1.70;;;;;;;;;;5058717;28;20201;-30
2023/05/18 15:41:56;;;;;;;7.53;1.97;;;;;;;;;;5068018;28;20521;-32
2023/05/18 15:44:23;;;;;;;4.77;1.90;;;;;;;;;;5057050;28;20198;-34
2023/05/18 15:46:51;;;;;;;2.77;1.63;;;;;;;;;;5060587;28;20228;-31
2023/05/18 15:49:19;;;;;;;5.63;1.90;;;;;;;;;;5064497;28;20208;-32
2023/05/18 15:51:47;;;;;;;7.13;1.73;;;;;;;;;;5059424;28;20654;-31
2023/05/18 15:54:14;;;;;;;5.47;1.63;;;;;;;;;;5058089;28;20299;-28
2023/05/18 15:56:42;;;;;;;8.17;2.20;;;;;;;;;;5070184;28;20216;-33
2023/05/18 15:59:09;;;;;;;3.37;1.90;;;;;;;;;;5060589;28;20205;-32
2023/05/18 16:01:36;;;;;;;3.73;2.03;;;;;;;;;;5061213;28;20754;-33
2023/05/18 16:04:04;;;;;;;5.53;1.93;;;;;;;;;;5064079;28;20201;-31
2023/05/18 16:06:31;;;;;;;4.53;2.33;;;;;;;;;;5062979;28;20214;-31
2023/05/18 16:08:58;;;;;;;4.83;2.17;;;;;;;;;;5059518;28;20263;-30
2023/05/18 16:11:27;;;;;;;3.27;1.70;;;;;;;;;;5064684;28;20204;-31
2023/05/18 16:13:55;;;;;;;6.13;1.70;;;;;;;;;;5069132;28;20189;-32
2023/05/18 16:16:22;;;;;;;4.67;2.10;;;;;;;;;;5057676;28;20225;-29
2023/05/18 16:18:50;;;;;;;6.27;1.80;;;;;;;;;;5067835;28;20201;-33
2023/05/18 16:21:17;;;;;;;3.23;1.63;;;;;;;;;;5060367;28;20197;-31
2023/05/18 16:23:45;;;;;;;5.00;1.80;;;;;;;;;;5063262;28;20232;-31
2023/05/18 16:26:12;;;;;;;6.60;1.77;;;;;;;;;;5063898;28;20218;-31
2023/05/18 16:28:40;;;;;;;5.00;2.00;;;;;;;;;;5067755;28;20201;-31
2023/05/18 16:31:10;;;;;;;2.23;1.37;;;;;;;;;;5056210;28;20198;-31
2023/05/18 16:33:37;;;;;;;4.17;1.73;;;;;;;;;;5063063;28;20190;-32
2023/05/18 16:36:05;;;;;;;6.67;2.00;;;;;;;;;;5072581;28;20237;-32
2023/05/18 16:38:34;;;;;;;5.53;2.40;;;;;;;;;;5070744;28;20204;-33
2023/05/18 16:41:05;;;;;;;4.07;1.80;;;;;;;;;;5058858;28;20459;-32
2023/05/18 16:43:32;;;;;;;4.73;2.33;;;;;;;;;;5063960;28;20539;-31
2023/05/18 16:45:59;;;;;;;3.10;1.53;;;;;;;;;;5061319;28;20230;-29
2023/05/18 16:48:28;;;;;;;7.13;2.37;;;;;;;;;;5052229;28;20202;-30
2023/05/18 16:50:55;;;;;;;5.07;2.03;;;;;;;;;;5068759;28;20198;-31
2023/05/18 16:53:22;;;;;;;4.90;2.10;;;;;;;;;;5067621;28;20193;-33
2023/05/18 16:55:49;;;;;;;5.60;2.13;;;;;;;;;;5065422;28;20220;-31